createdAt,value
2023-02-09T00:00:48.196Z,8.40
2023-02-09T00:03:35.545Z,10.82
2023-02-09T00:06:23.207Z,8.90
2023-02-09T00:09:09.000Z,9.65
2023-02-09T00:12:13.558Z,9.20
2023-02-09T00:14:59.075Z,8.80
2023-02-09T00:17:44.843Z,12.55
2023-02-09T00:20:31.911Z,10.50
2023-02-09T00:23:17.684Z,10.35
2023-02-09T00:26:05.895Z,12.57
2023-02-09T00:28:51.664Z,9.38
2023-02-09T00:31:39.912Z,8.75
2023-02-09T00:34:25.792Z,9.23
2023-02-09T00:37:16.028Z,7.05
2023-02-09T00:40:06.633Z,12.32
2023-02-09T00:42:53.723Z,11.00
2023-02-09T00:45:39.826Z,9.05
2023-02-09T00:48:26.281Z,10.25
2023-02-09T00:51:12.354Z,8.82
2023-02-09T00:53:59.683Z,9.77
2023-02-09T00:56:45.626Z,7.78
2023-02-09T00:59:33.433Z,8.32
2023-02-09T01:02:19.482Z,8.32
2023-02-09T01:05:06.050Z,7.55
2023-02-09T01:07:52.099Z,12.50
2023-02-09T01:10:40.542Z,9.55
2023-02-09T01:13:26.324Z,8.60
2023-02-09T01:16:15.393Z,14.20
2023-02-09T01:19:01.860Z,10.48
2023-02-09T01:21:49.271Z,9.38
2023-02-09T01:24:36.291Z,11.57
2023-02-09T01:27:23.751Z,15.38
2023-02-09T01:30:10.745Z,7.72
2023-02-09T01:32:57.060Z,10.60
2023-02-09T01:35:42.756Z,12.70
2023-02-09T01:38:28.688Z,8.80
2023-02-09T01:41:14.900Z,10.88
2023-02-09T01:44:03.448Z,11.82
2023-02-09T01:46:49.256Z,11.13
2023-02-09T01:49:35.285Z,10.35
2023-02-09T01:52:25.609Z,11.68
2023-02-09T01:55:14.740Z,6.80
2023-02-09T01:58:03.731Z,7.80
2023-02-09T02:00:51.451Z,14.80
2023-02-09T02:03:39.367Z,10.30
2023-02-09T02:06:25.425Z,8.57
2023-02-09T02:09:13.604Z,8.18
2023-02-09T02:12:00.736Z,9.10
2023-02-09T02:14:46.486Z,10.75
2023-02-09T02:17:47.667Z,9.57
2023-02-09T02:20:59.567Z,10.20
2023-02-09T02:23:56.574Z,11.02
2023-02-09T02:26:53.522Z,9.35
2023-02-09T02:30:08.346Z,9.23
2023-02-09T02:33:06.712Z,10.82
2023-02-09T02:35:58.151Z,9.18
2023-02-09T02:38:54.340Z,10.13
2023-02-09T02:42:07.199Z,10.23
2023-02-09T02:44:59.898Z,10.60
2023-02-09T02:47:52.015Z,12.38
2023-02-09T02:50:45.569Z,10.98
2023-02-09T02:53:35.877Z,10.75
2023-02-09T02:56:30.569Z,12.80
2023-02-09T02:59:21.307Z,9.82
2023-02-09T03:02:12.474Z,9.88
2023-02-09T03:07:49.835Z,9.30
2023-02-09T03:10:37.495Z,8.43
2023-02-09T03:13:40.832Z,12.07
2023-02-09T03:16:34.444Z,8.43
2023-02-09T03:19:32.986Z,11.18
2023-02-09T03:22:29.138Z,11.50
2023-02-09T03:25:22.487Z,11.20
2023-02-09T03:28:12.348Z,8.10
2023-02-09T03:31:00.017Z,10.98
2023-02-09T03:33:46.231Z,10.10
2023-02-09T03:36:33.664Z,11.73
2023-02-09T03:39:19.474Z,13.23
2023-02-09T03:42:07.469Z,9.98
2023-02-09T03:44:52.963Z,10.77
2023-02-09T03:47:38.332Z,12.98
2023-02-09T03:50:24.274Z,9.25
2023-02-09T03:53:09.835Z,10.00
2023-02-09T03:55:55.690Z,13.55
2023-02-09T03:58:42.821Z,11.75
2023-02-09T04:01:28.247Z,10.93
2023-02-09T04:04:14.176Z,14.00
2023-02-09T04:07:00.445Z,11.25
2023-02-09T04:09:46.207Z,13.02
2023-02-09T04:12:32.269Z,8.70
2023-02-09T04:15:19.579Z,7.60
2023-02-09T04:18:05.400Z,12.38
2023-02-09T04:20:51.084Z,10.95
2023-02-09T04:23:37.019Z,10.85
2023-02-09T04:26:22.967Z,12.10
2023-02-09T04:29:08.452Z,10.93
2023-02-09T04:31:56.056Z,9.95
2023-02-09T04:34:41.488Z,11.75
2023-02-09T04:37:27.252Z,14.02
2023-02-09T04:40:13.049Z,15.30
2023-02-09T04:42:58.725Z,11.13
2023-02-09T04:45:44.862Z,7.90
2023-02-09T04:48:32.054Z,9.23
2023-02-09T04:51:18.006Z,11.57
2023-02-09T04:54:04.010Z,11.95
2023-02-09T04:57:09.847Z,12.20
2023-02-09T04:59:55.704Z,9.55
2023-02-09T05:02:41.415Z,10.68
2023-02-09T05:05:28.707Z,12.10
2023-02-09T05:08:14.548Z,11.70
2023-02-09T05:11:00.565Z,10.57
2023-02-09T05:13:46.639Z,10.07
2023-02-09T05:16:32.096Z,9.32
2023-02-09T05:19:17.799Z,12.07
2023-02-09T05:22:04.923Z,8.82
2023-02-09T05:24:50.632Z,8.65
2023-02-09T05:27:36.447Z,8.85
2023-02-09T05:30:22.579Z,10.70
2023-02-09T05:33:08.010Z,10.55
2023-02-09T05:35:55.761Z,14.57
2023-02-09T05:38:42.876Z,11.77
2023-02-09T05:41:46.990Z,10.88
2023-02-09T05:44:32.697Z,9.65
2023-02-09T05:47:20.368Z,15.07
2023-02-09T05:50:06.259Z,9.35
2023-02-09T05:52:52.224Z,7.85
2023-02-09T05:55:39.402Z,11.63
2023-02-09T05:58:24.894Z,9.52
2023-02-09T06:01:10.895Z,10.15
2023-02-09T06:03:56.309Z,10.15
2023-02-09T06:06:42.180Z,12.73
2023-02-09T06:09:28.660Z,11.23
2023-02-09T06:12:15.691Z,10.27
2023-02-09T06:15:01.564Z,10.32
2023-02-09T06:17:47.572Z,10.82
2023-02-09T06:20:33.195Z,14.20
2023-02-09T06:23:18.875Z,13.38
2023-02-09T06:26:06.851Z,9.40
2023-02-09T06:28:53.656Z,12.20
2023-02-09T06:31:41.908Z,10.88
2023-02-09T06:34:28.192Z,10.75
2023-02-09T06:37:13.652Z,11.25
2023-02-09T06:39:59.522Z,13.15
2023-02-09T06:42:45.263Z,15.02
2023-02-09T06:45:32.392Z,13.38
2023-02-09T06:48:18.355Z,11.65
2023-02-09T06:51:08.185Z,11.05
2023-02-09T06:53:53.705Z,13.18
2023-02-09T06:56:39.318Z,13.13
2023-02-09T06:59:24.883Z,16.63
2023-02-09T07:02:11.852Z,11.05
2023-02-09T07:05:00.209Z,13.30
2023-02-09T07:07:46.540Z,11.18
2023-02-09T07:10:32.181Z,16.38
2023-02-09T07:13:17.655Z,13.13
2023-02-09T07:16:07.729Z,11.73
2023-02-09T07:18:54.945Z,11.35
2023-02-09T07:21:41.004Z,13.40
2023-02-09T07:24:26.688Z,10.05
2023-02-09T07:27:12.139Z,11.63
2023-02-09T07:29:59.316Z,10.95
2023-02-09T07:32:46.368Z,13.23
2023-02-09T07:35:33.481Z,13.07
2023-02-09T07:38:19.510Z,13.88
2023-02-09T07:41:06.871Z,15.40
2023-02-09T07:43:52.952Z,13.32
2023-02-09T07:46:38.700Z,12.32
2023-02-09T07:49:24.578Z,11.60
2023-02-09T07:52:12.214Z,13.57
2023-02-09T07:54:57.668Z,15.05
2023-02-09T07:57:43.905Z,13.60
2023-02-09T08:00:29.971Z,11.40
2023-02-09T08:03:18.169Z,14.20
2023-02-09T08:06:10.734Z,10.07
2023-02-09T08:08:58.162Z,12.00
2023-02-09T08:11:48.475Z,14.75
2023-02-09T08:14:39.825Z,14.52
2023-02-09T08:20:17.787Z,12.20
2023-02-09T08:23:09.090Z,12.02
2023-02-09T08:26:02.884Z,11.85
2023-02-09T08:28:49.596Z,12.07
2023-02-09T08:31:37.850Z,14.55
2023-02-09T08:34:23.758Z,12.88
2023-02-09T08:37:09.776Z,13.43
2023-02-09T08:39:55.684Z,12.85
2023-02-09T08:42:42.887Z,13.65
2023-02-09T08:45:28.934Z,11.48
2023-02-09T08:48:14.739Z,13.38
2023-02-09T08:51:01.272Z,12.85
2023-02-09T08:53:52.426Z,13.77
2023-02-09T08:56:38.436Z,11.15
2023-02-09T08:59:25.818Z,13.77
2023-02-09T09:02:11.587Z,14.75
2023-02-09T09:04:57.258Z,14.35
2023-02-09T09:07:43.335Z,12.57
2023-02-09T09:10:29.669Z,16.52
2023-02-09T09:13:15.480Z,10.73
2023-02-09T09:16:05.070Z,10.95
2023-02-09T09:18:51.224Z,13.02
2023-02-09T09:21:37.106Z,12.00
2023-02-09T09:24:23.783Z,11.30
2023-02-09T09:27:11.146Z,13.15
2023-02-09T09:29:57.100Z,13.30
2023-02-09T09:32:44.423Z,12.75
2023-02-09T09:35:31.016Z,12.43
2023-02-09T09:38:16.942Z,13.10
2023-02-09T09:41:03.650Z,11.15
2023-02-09T09:43:50.325Z,15.65
2023-02-09T09:46:39.510Z,15.73
2023-02-09T09:49:28.729Z,13.23
2023-02-09T09:52:21.010Z,13.98
2023-02-09T09:55:09.844Z,12.93
2023-02-09T09:57:58.546Z,13.60
2023-02-09T10:00:45.316Z,14.00
2023-02-09T10:03:31.084Z,15.30
2023-02-09T10:06:21.167Z,12.57
2023-02-09T10:09:16.089Z,15.43
2023-02-09T10:12:19.004Z,16.55
2023-02-09T10:15:22.063Z,14.38
2023-02-09T10:18:14.278Z,13.68
2023-02-09T10:21:03.460Z,15.82
2023-02-09T10:24:02.691Z,15.48
2023-02-09T10:27:03.768Z,18.73
2023-02-09T10:29:49.389Z,14.45
2023-02-09T10:32:39.983Z,17.27
2023-02-09T10:35:28.575Z,11.32
2023-02-09T10:38:18.326Z,14.82
2023-02-09T10:41:10.265Z,13.75
2023-02-09T10:43:56.408Z,16.70
2023-02-09T10:46:42.454Z,13.50
2023-02-09T10:49:31.191Z,16.00
2023-02-09T10:52:20.458Z,17.45
2023-02-09T10:55:24.251Z,15.43
2023-02-09T10:58:21.994Z,19.52
2023-02-09T11:01:19.317Z,14.45
2023-02-09T11:04:07.097Z,15.23
2023-02-09T11:06:55.413Z,15.45
2023-02-09T11:09:45.774Z,15.77
2023-02-09T11:12:31.599Z,12.40
2023-02-09T11:15:26.371Z,13.23
2023-02-09T11:18:16.999Z,19.08
2023-02-09T11:21:10.504Z,14.75
2023-02-09T11:24:02.073Z,14.73
2023-02-09T11:29:40.941Z,13.82
2023-02-09T11:32:34.126Z,17.42
2023-02-09T11:35:24.117Z,15.85
2023-02-09T11:38:15.799Z,16.27
2023-02-09T11:41:26.032Z,17.20
2023-02-09T11:44:20.848Z,20.33
2023-02-09T11:47:07.781Z,16.05
2023-02-09T11:49:58.479Z,14.98
2023-02-09T11:52:51.561Z,16.20
2023-02-09T11:55:42.975Z,16.42
2023-02-09T11:58:38.683Z,17.10
2023-02-09T12:01:32.605Z,16.17
2023-02-09T12:04:22.157Z,18.17
2023-02-09T12:07:17.651Z,18.63
2023-02-09T12:10:15.872Z,16.23
2023-02-09T12:13:11.433Z,14.73
2023-02-09T12:16:00.585Z,16.00
2023-02-09T12:18:47.135Z,18.02
2023-02-09T12:21:38.159Z,16.25
2023-02-09T12:24:39.366Z,18.35
2023-02-09T12:27:27.061Z,18.70
2023-02-09T12:30:50.385Z,18.58
2023-02-09T12:33:37.806Z,14.73
2023-02-09T12:36:29.596Z,22.05
2023-02-09T12:39:24.342Z,20.13
2023-02-09T12:42:39.153Z,23.45
2023-02-09T12:45:34.450Z,17.75
2023-02-09T12:48:21.274Z,23.15
2023-02-09T12:51:39.557Z,16.80
2023-02-09T12:54:38.686Z,20.52
2023-02-09T12:57:53.300Z,18.15
2023-02-09T13:00:51.729Z,21.27
2023-02-09T13:03:44.073Z,20.25
2023-02-09T13:06:39.354Z,20.23
2023-02-09T13:09:29.116Z,22.67
2023-02-09T13:12:20.058Z,16.40
2023-02-09T13:15:13.944Z,20.90
2023-02-09T13:18:09.912Z,22.02
2023-02-09T13:21:04.323Z,26.48
2023-02-09T13:24:00.830Z,23.02
2023-02-09T13:26:52.270Z,24.23
2023-02-09T13:29:38.262Z,21.42
2023-02-09T13:32:35.148Z,23.48
2023-02-09T13:35:24.432Z,22.17
2023-02-09T13:38:16.219Z,19.27
2023-02-09T13:41:03.163Z,26.92
2023-02-09T13:43:49.122Z,21.75
2023-02-09T13:46:35.462Z,22.30
2023-02-09T13:49:24.287Z,20.98
2023-02-09T13:52:12.599Z,25.23
2023-02-09T13:55:10.404Z,20.80
2023-02-09T13:58:00.414Z,24.30
2023-02-09T14:00:49.795Z,24.75
2023-02-09T14:03:46.901Z,20.10
2023-02-09T14:06:47.596Z,26.73
2023-02-09T14:09:43.178Z,22.35
2023-02-09T14:12:51.451Z,22.83
2023-02-09T14:15:58.416Z,23.83
2023-02-09T14:18:47.786Z,23.85
2023-02-09T14:21:46.174Z,24.67
2023-02-09T14:24:41.950Z,27.85
2023-02-09T14:27:29.573Z,23.52
2023-02-09T14:30:17.274Z,27.45
2023-02-09T14:33:03.925Z,22.25
2023-02-09T14:35:55.905Z,24.17
2023-02-09T14:38:43.007Z,29.30
2023-02-09T14:41:30.629Z,26.50
2023-02-09T14:44:21.297Z,27.23
2023-02-09T14:47:28.814Z,31.27
2023-02-09T14:50:17.266Z,27.58
2023-02-09T14:53:06.940Z,25.17
2023-02-09T14:55:54.591Z,25.80
2023-02-09T14:58:40.189Z,26.77
2023-02-09T15:01:25.790Z,24.17
2023-02-09T15:04:11.889Z,24.30
2023-02-09T15:07:01.965Z,25.40
2023-02-09T15:09:48.605Z,28.73
2023-02-09T15:12:35.730Z,28.15
2023-02-09T15:15:22.822Z,26.73
2023-02-09T15:18:19.027Z,28.45
2023-02-09T15:21:05.210Z,33.15
2023-02-09T15:23:51.233Z,28.90
2023-02-09T15:26:37.792Z,26.48
2023-02-09T15:29:26.058Z,26.35
2023-02-09T15:32:15.468Z,26.60
2023-02-09T15:35:01.149Z,24.58
2023-02-09T15:37:49.522Z,26.77
2023-02-09T15:40:58.656Z,24.13
2023-02-09T15:44:02.769Z,28.33
2023-02-09T15:47:08.524Z,28.58
2023-02-09T15:49:54.184Z,29.25
2023-02-09T15:52:40.009Z,32.95
2023-02-09T15:58:15.194Z,30.10
2023-02-09T16:03:48.113Z,28.30
2023-02-09T16:06:35.752Z,29.95
2023-02-09T16:09:25.050Z,27.45
2023-02-09T16:12:11.497Z,33.22
2023-02-09T16:14:57.488Z,28.77
2023-02-09T16:17:43.464Z,29.00
2023-02-09T16:20:31.532Z,35.95
2023-02-09T16:23:21.682Z,30.10
2023-02-09T16:26:09.409Z,31.92
2023-02-09T16:28:55.676Z,28.92
2023-02-09T16:31:41.728Z,31.92
2023-02-09T16:34:27.945Z,31.73
2023-02-09T16:37:17.752Z,30.02
2023-02-09T16:42:58.046Z,31.80
2023-02-09T16:48:49.182Z,28.10
2023-02-09T16:59:56.710Z,30.50
2023-02-09T17:44:47.534Z,32.90
2023-02-09T19:24:48.444Z,44.57
2023-02-09T20:12:02.577Z,47.92
2023-02-09T20:34:15.366Z,59.40
2023-02-09T20:39:46.807Z,47.40
2023-02-09T20:51:30.766Z,57.50
2023-02-09T21:05:22.000Z,54.20
2023-02-09T21:10:55.825Z,62.20
2023-02-09T21:26:08.710Z,71.75
2023-02-09T21:32:10.639Z,98.30
2023-02-09T21:43:15.003Z,62.70
2023-02-09T21:51:24.131Z,61.35
2023-02-09T21:54:13.460Z,63.47
2023-02-09T21:56:59.455Z,59.60
2023-02-09T21:59:45.763Z,57.20
2023-02-09T22:05:20.139Z,58.20
2023-02-09T22:08:06.317Z,54.50
2023-02-09T22:19:14.204Z,75.40
2023-02-09T22:22:03.949Z,108.53
2023-02-09T22:24:50.180Z,77.78
2023-02-09T22:44:15.773Z,67.45
2023-02-09T22:47:01.811Z,67.60
2023-02-09T22:49:47.564Z,62.47
2023-02-09T22:52:34.334Z,65.47
2023-02-09T22:55:21.477Z,63.33
2023-02-09T22:58:07.172Z,66.28
2023-02-09T23:00:52.768Z,66.22
2023-02-09T23:03:39.177Z,67.03
2023-02-09T23:06:27.528Z,65.68
2023-02-09T23:12:02.017Z,62.58
2023-02-09T23:17:34.179Z,65.33
2023-02-09T23:23:06.765Z,63.60
2023-02-09T23:25:52.481Z,122.77
2023-02-09T23:28:39.368Z,81.20
2023-02-09T23:31:25.365Z,72.65
2023-02-09T23:34:13.959Z,80.80
2023-02-09T23:37:05.172Z,72.38
2023-02-09T23:39:59.256Z,66.40
2023-02-09T23:42:44.821Z,74.93
2023-02-09T23:45:31.851Z,69.90
2023-02-09T23:48:17.861Z,65.85
2023-02-09T23:51:06.389Z,82.70
2023-02-09T23:53:53.478Z,72.07
2023-02-09T23:56:39.579Z,65.70
2023-02-09T23:59:25.623Z,77.85
